Time;durP1;ratioP1;P1;durP2;ratioP2;P2;SDS_P1;SDS_P2;PMS_P1;PMS_P2;Temp;Humidity;BMP_temperature;BMP_pressure;BME280_temperature;BME280_humidity;BME280_pressure;Samples;Min_cycle;Max_cycle;Signal;HPM_P1;HPM_P2
2023/01/04 00:01:31;;;;;;;41.15;18.27;;;6.20;99.90;;;;;;5052406;28;20127;-61
2023/01/04 00:03:58;;;;;;;40.97;16.83;;;6.20;99.90;;;;;;5052610;28;20052;-61
2023/01/04 00:06:24;;;;;;;51.10;19.20;;;6.20;99.90;;;;;;5052347;28;20052;-61
2023/01/04 00:08:53;;;;;;;52.53;19.45;;;6.20;99.90;;;;;;5053030;28;20493;-62
2023/01/04 00:11:21;;;;;;;44.72;19.30;;;6.20;99.90;;;;;;5060821;28;20459;-62
2023/01/04 00:13:51;;;;;;;63.75;21.48;;;6.10;99.90;;;;;;5051029;28;20091;-62
2023/01/04 00:16:20;;;;;;;46.85;20.20;;;6.10;99.90;;;;;;5052802;28;20044;-62
2023/01/04 00:18:49;;;;;;;54.50;21.25;;;6.10;99.90;;;;;;5050769;28;20037;-62
2023/01/04 00:21:17;;;;;;;45.75;19.25;;;6.10;99.90;;;;;;5052515;28;20448;-60
2023/01/04 00:23:46;;;;;;;54.88;22.20;;;6.10;99.90;;;;;;5053715;28;20442;-60
2023/01/04 00:26:15;;;;;;;50.30;20.40;;;6.10;99.90;;;;;;5053608;28;20036;-60
2023/01/04 00:28:42;;;;;;;51.00;21.35;;;6.10;99.90;;;;;;5055008;28;20048;-61
2023/01/04 00:31:17;;;;;;;48.97;21.13;;;6.10;99.90;;;;;;5051828;28;20037;-61
2023/01/04 00:33:44;;;;;;;59.38;23.75;;;6.10;99.90;;;;;;5053449;28;20055;-60
2023/01/04 00:36:13;;;;;;;57.17;22.95;;;6.10;99.90;;;;;;5054753;28;20514;-60
2023/01/04 00:38:41;;;;;;;49.58;22.42;;;6.20;99.90;;;;;;5053859;28;20055;-60
2023/01/04 00:41:09;;;;;;;58.75;23.23;;;6.20;99.90;;;;;;5050786;28;20763;-60
2023/01/04 00:43:53;;;;;;;47.45;20.90;;;6.30;99.90;;;;;;5053963;28;20049;-60
2023/01/04 00:46:20;;;;;;;51.47;21.63;;;6.40;99.90;;;;;;5055512;28;20098;-61
2023/01/04 00:48:47;;;;;;;49.47;22.25;;;6.40;99.90;;;;;;5051219;28;20444;-61
2023/01/04 00:51:14;;;;;;;55.13;23.08;;;6.40;99.90;;;;;;5053425;28;20037;-60
2023/01/04 00:53:41;;;;;;;44.30;20.25;;;6.30;99.90;;;;;;5051423;28;20065;-60
2023/01/04 00:56:08;;;;;;;174.52;23.92;;;6.40;99.90;;;;;;5051412;28;20095;-60
2023/01/04 00:58:34;;;;;;;39.47;17.15;;;6.30;99.90;;;;;;5055199;28;20036;-60
2023/01/04 01:01:05;;;;;;;49.60;18.20;;;6.20;99.90;;;;;;5051510;28;20071;-60
2023/01/04 01:03:33;;;;;;;48.58;21.10;;;6.20;99.90;;;;;;5050583;28;20068;-60
2023/01/04 01:06:06;;;;;;;58.70;23.23;;;6.20;99.90;;;;;;5055183;28;20037;-60
2023/01/04 01:08:34;;;;;;;67.78;26.38;;;6.20;99.90;;;;;;5055287;28;20493;-60
2023/01/04 01:11:05;;;;;;;;;;;6.20;99.90;;;;;;5052999;28;20075;-60
2023/01/04 01:13:32;;;;;;;63.03;24.58;;;6.20;99.90;;;;;;5053040;28;19978;-60
2023/01/04 01:16:18;;;;;;;;;;;6.20;99.90;;;;;;5056998;28;20045;-60
2023/01/04 01:19:05;;;;;;;60.60;22.75;;;6.20;99.90;;;;;;5054852;28;20159;-60
2023/01/04 01:21:31;;;;;;;64.30;24.50;;;6.20;99.90;;;;;;5050789;28;20811;-61
2023/01/04 01:23:58;;;;;;;61.78;23.55;;;6.30;99.90;;;;;;5056386;28;20052;-60
2023/01/04 01:26:25;;;;;;;67.97;24.33;;;6.30;99.90;;;;;;5058576;28;20483;-60
2023/01/04 01:28:52;;;;;;;66.43;24.15;;;6.30;99.90;;;;;;5050720;28;20037;-60
2023/01/04 01:31:24;;;;;;;64.93;24.48;;;6.30;99.90;;;;;;5054776;28;20405;-60
2023/01/04 01:33:54;;;;;;;56.28;22.92;;;6.30;99.90;;;;;;5050433;28;20043;-60
2023/01/04 01:36:23;;;;;;;63.60;24.67;;;6.20;99.90;;;;;;5057401;28;20049;-60
2023/01/04 01:38:50;;;;;;;57.78;24.08;;;6.30;99.90;;;;;;5054304;28;20044;-60
2023/01/04 01:41:28;;;;;;;59.58;24.63;;;6.30;99.90;;;;;;5054743;28;20049;-60
2023/01/04 01:43:59;;;;;;;57.10;23.88;;;6.40;99.90;;;;;;5062916;28;20040;-60
2023/01/04 01:46:46;;;;;;;49.92;21.70;;;6.30;99.90;;;;;;5050355;28;20444;-63
2023/01/04 01:49:29;;;;;;;58.40;22.80;;;6.30;99.90;;;;;;5059303;28;20123;-60
2023/01/04 01:52:00;;;;;;;52.50;18.90;;;6.30;99.90;;;;;;5057577;28;20045;-60
2023/01/04 01:54:38;;;;;;;40.72;17.73;;;6.30;99.90;;;;;;5052032;28;20094;-62
2023/01/04 01:57:09;;;;;;;43.90;17.05;;;6.30;99.90;;;;;;5058219;28;20091;-60
2023/01/04 01:59:39;;;;;;;49.25;20.05;;;6.20;99.90;;;;;;5060738;28;20044;-60
2023/01/04 02:02:06;;;;;;;51.58;21.63;;;6.20;99.90;;;;;;5056935;28;20044;-60
2023/01/04 02:04:36;;;;;;;43.47;19.35;;;6.20;99.90;;;;;;5050772;28;20051;-59
2023/01/04 02:07:03;;;;;;;44.40;18.80;;;6.20;99.90;;;;;;5060091;28;20070;-60
2023/01/04 02:09:32;;;;;;;46.75;19.70;;;6.20;99.90;;;;;;5061107;28;20110;-60
2023/01/04 02:11:58;;;;;;;50.08;20.33;;;6.30;99.90;;;;;;5054946;28;20041;-60
2023/01/04 02:14:28;;;;;;;51.53;19.92;;;6.20;99.90;;;;;;5052775;28;20678;-60
2023/01/04 02:17:01;;;;;;;48.13;20.33;;;6.20;99.90;;;;;;5061640;28;20050;-59
2023/01/04 02:20:00;;;;;;;49.22;19.50;;;6.20;99.90;;;;;;5056304;28;20037;-59
2023/01/04 02:23:01;;;;;;;52.28;21.25;;;6.20;99.90;;;;;;5056493;28;20033;-60
2023/01/04 02:25:43;;;;;;;51.65;21.38;;;6.10;99.90;;;;;;5057190;28;20045;-62
2023/01/04 02:28:16;;;;;;;53.03;22.25;;;6.10;99.90;;;;;;5051950;28;20098;-62
2023/01/04 02:30:42;;;;;;;53.30;21.55;;;6.10;99.90;;;;;;5061213;28;20137;-60
2023/01/04 02:33:35;;;;;;;52.17;21.10;;;6.10;99.90;;;;;;5062215;28;20037;-60
2023/01/04 02:36:36;;;;;;;50.15;20.52;;;6.10;99.90;;;;;;5050714;28;20033;-59
2023/01/04 02:39:42;;;;;;;53.60;20.77;;;6.10;99.90;;;;;;5053266;28;20072;-59
2023/01/04 02:45:30;;;;;;;51.30;20.65;;;6.00;99.90;;;;;;5049032;28;20107;-60
2023/01/04 02:50:56;;;;;;;46.78;19.45;;;6.00;99.90;;;;;;5060759;28;20037;-61
2023/01/04 02:53:27;;;;;;;51.40;21.35;;;6.10;99.90;;;;;;5049676;28;20390;-62
2023/01/04 02:56:34;;;;;;;49.50;20.92;;;6.00;99.90;;;;;;5049686;28;20052;-61
2023/01/04 02:59:01;;;;;;;48.83;19.15;;;6.00;99.90;;;;;;5053372;28;20056;-61
2023/01/04 03:08:00;;;;;;;30.98;12.95;;;5.90;99.90;;;;;;5070666;28;20051;-61
2023/01/04 03:10:48;;;;;;;21.75;9.65;;;5.80;99.90;;;;;;5051960;28;20076;-61
2023/01/04 03:13:44;;;;;;;22.52;9.52;;;5.80;99.90;;;;;;5050467;28;20111;-61
2023/01/04 03:16:19;;;;;;;20.38;8.73;;;5.70;99.90;;;;;;5070002;28;20056;-61
2023/01/04 03:18:51;;;;;;;17.48;7.95;;;5.70;99.90;;;;;;5070248;28;20116;-62
2023/01/04 03:21:21;;;;;;;18.63;8.73;;;5.60;99.90;;;;;;5073208;28;20044;-61
2023/01/04 03:35:52;;;;;;;17.67;8.45;;;5.40;99.90;;;;;;5076069;28;20045;-61
2023/01/04 03:50:23;;;;;;;25.50;10.65;;;5.40;99.90;;;;;;5067330;28;20071;-59
2023/01/04 03:52:51;;;;;;;27.10;12.25;;;5.40;99.90;;;;;;5073168;28;20094;-59
2023/01/04 03:55:18;;;;;;;30.73;13.45;;;5.40;99.90;;;;;;5073487;28;20045;-61
2023/01/04 03:57:45;;;;;;;32.78;13.95;;;5.40;99.90;;;;;;5073137;28;20139;-61
2023/01/04 04:00:15;;;;;;;32.83;14.05;;;5.40;99.90;;;;;;5072043;28;20044;-59
2023/01/04 04:02:45;;;;;;;26.35;11.60;;;5.40;99.90;;;;;;5070272;28;20497;-59
2023/01/04 04:10:49;;;;;;;26.05;10.75;;;5.30;99.90;;;;;;5082998;28;20072;-61
2023/01/04 04:13:16;;;;;;;24.80;11.63;;;5.30;99.90;;;;;;5081038;28;20373;-59
2023/01/04 04:15:42;;;;;;;29.75;12.13;;;5.30;99.90;;;;;;5058945;28;20044;-61
2023/01/04 04:18:09;;;;;;;29.80;12.10;;;5.30;99.90;;;;;;5061511;28;20496;-61
2023/01/04 04:20:36;;;;;;;24.33;10.93;;;5.30;99.90;;;;;;5073225;28;20045;-60
2023/01/04 04:23:03;;;;;;;24.55;11.23;;;5.30;99.90;;;;;;5071871;28;20090;-61
2023/01/04 04:25:30;;;;;;;22.55;10.50;;;5.30;99.90;;;;;;5073618;28;20411;-59
2023/01/04 04:27:57;;;;;;;21.58;9.43;;;5.20;99.90;;;;;;5075738;28;20044;-61
2023/01/04 04:30:23;;;;;;;20.05;9.48;;;5.20;99.90;;;;;;5062697;28;20040;-61
2023/01/04 04:32:50;;;;;;;23.63;11.30;;;5.20;99.90;;;;;;5052726;28;20044;-61
2023/01/04 04:35:17;;;;;;;31.50;12.43;;;5.20;99.90;;;;;;5053246;28;20575;-61
2023/01/04 04:37:44;;;;;;;27.55;10.88;;;5.10;99.90;;;;;;5086273;28;20059;-61
2023/01/04 04:41:37;;;;;;;26.38;10.10;;;5.10;99.90;;;;;;5057067;28;20049;-59
2023/01/04 04:42:58;;;;;;;18.15;8.43;;;5.00;99.90;;;;;;5066789;28;20044;-59
2023/01/04 04:45:24;;;;;;;21.05;8.65;;;5.00;99.90;;;;;;5071879;28;20041;-61
2023/01/04 04:47:51;;;;;;;20.75;8.30;;;5.00;99.90;;;;;;5072662;28;20132;-59
2023/01/04 04:50:18;;;;;;;15.95;7.25;;;4.90;99.90;;;;;;5073492;28;20040;-61
2023/01/04 04:52:45;;;;;;;16.38;7.22;;;4.90;99.90;;;;;;5059212;28;20079;-61
2023/01/04 04:55:19;;;;;;;17.17;7.55;;;4.80;99.90;;;;;;5052762;28;20052;-60
2023/01/04 04:57:46;;;;;;;13.27;5.32;;;4.70;99.90;;;;;;5066565;28;20040;-61
2023/01/04 05:00:13;;;;;;;12.55;5.47;;;4.70;99.90;;;;;;5073599;28;20098;-61
2023/01/04 05:02:40;;;;;;;9.50;4.43;;;4.70;99.90;;;;;;5072040;28;20484;-61
2023/01/04 05:05:07;;;;;;;7.18;3.15;;;4.70;99.90;;;;;;5072554;28;20054;-61
2023/01/04 05:07:34;;;;;;;9.82;4.18;;;4.70;99.90;;;;;;5073378;28;20041;-61
2023/01/04 05:10:01;;;;;;;7.65;3.00;;;4.60;99.90;;;;;;5072020;28;20094;-59
2023/01/04 05:15:16;;;;;;;8.70;3.80;;;4.50;99.90;;;;;;5076257;28;20497;-62
2023/01/04 05:17:43;;;;;;;10.73;5.07;;;4.50;99.90;;;;;;5073661;28;20028;-59
2023/01/04 05:20:10;;;;;;;15.80;7.35;;;4.40;99.90;;;;;;5071873;28;20496;-62
2023/01/04 05:22:36;;;;;;;18.60;7.80;;;4.40;99.90;;;;;;5074197;28;20040;-61
2023/01/04 05:25:03;;;;;;;11.65;5.75;;;4.50;99.90;;;;;;5070705;28;20576;-60
2023/01/04 05:27:30;;;;;;;15.85;6.07;;;4.50;99.90;;;;;;5059335;28;20068;-59
2023/01/04 05:32:42;;;;;;;17.77;8.57;;;4.40;99.90;;;;;;5070095;28;20495;-61
2023/01/04 05:35:09;;;;;;;17.17;7.60;;;4.50;99.90;;;;;;5070008;28;20090;-59
2023/01/04 05:37:36;;;;;;;17.92;6.95;;;4.70;99.90;;;;;;5059723;28;20090;-62
2023/01/04 05:40:03;;;;;;;18.75;7.32;;;4.60;99.90;;;;;;5049697;28;20076;-62
2023/01/04 05:42:29;;;;;;;25.33;11.38;;;4.60;99.90;;;;;;5069826;28;20528;-62
2023/01/04 05:44:58;;;;;;;20.52;9.35;;;4.60;99.90;;;;;;5072936;28;20060;-61
2023/01/04 05:47:26;;;;;;;24.85;11.27;;;4.70;99.90;;;;;;5069863;28;20109;-61
2023/01/04 05:49:53;;;;;;;24.40;10.30;;;4.70;99.90;;;;;;5071175;28;20083;-61
2023/01/04 05:52:20;;;;;;;21.13;10.13;;;4.70;99.90;;;;;;5070476;28;20561;-61
2023/01/04 05:54:47;;;;;;;22.42;10.48;;;4.70;99.90;;;;;;5071440;28;20064;-61
2023/01/04 05:57:15;;;;;;;20.85;9.82;;;4.70;99.90;;;;;;5070344;28;20107;-61
2023/01/04 05:59:42;;;;;;;15.98;8.00;;;4.60;99.90;;;;;;5071266;28;20048;-61
2023/01/04 06:02:15;;;;;;;28.70;12.45;;;4.60;99.90;;;;;;5077378;28;20141;-61
2023/01/04 06:04:42;;;;;;;21.90;9.30;;;4.60;99.90;;;;;;5071619;28;20614;-61
2023/01/04 06:07:08;;;;;;;16.05;7.78;;;4.60;99.90;;;;;;5071380;28;20040;-61
2023/01/04 06:09:35;;;;;;;15.57;7.10;;;4.60;99.90;;;;;;5070151;28;20068;-62
2023/01/04 06:12:02;;;;;;;8.45;4.38;;;4.60;99.90;;;;;;5070167;28;20068;-59
2023/01/04 06:14:29;;;;;;;10.32;3.97;;;4.40;99.90;;;;;;5071063;28;20106;-61
2023/01/04 06:16:55;;;;;;;7.95;3.60;;;4.30;99.90;;;;;;5074549;28;20101;-59
2023/01/04 06:19:22;;;;;;;11.07;5.07;;;4.20;99.90;;;;;;5073121;28;20485;-59
2023/01/04 06:21:49;;;;;;;10.35;4.53;;;4.20;99.90;;;;;;5070379;28;20500;-61
2023/01/04 06:24:16;;;;;;;7.35;3.50;;;4.20;99.90;;;;;;5071271;28;20504;-59
2023/01/04 06:26:43;;;;;;;7.43;2.50;;;4.10;99.90;;;;;;5075218;28;20067;-60
2023/01/04 06:29:10;;;;;;;7.18;3.83;;;4.00;99.90;;;;;;5071125;28;20036;-59
2023/01/04 06:31:36;;;;;;;11.65;6.00;;;4.00;99.90;;;;;;5070724;28;20040;-60
2023/01/04 06:34:03;;;;;;;9.50;5.18;;;4.00;99.90;;;;;;5071183;28;20037;-60
2023/01/04 06:36:30;;;;;;;22.75;9.48;;;4.00;99.90;;;;;;5076924;28;20041;-60
2023/01/04 06:38:58;;;;;;;10.05;5.32;;;4.00;99.90;;;;;;5070728;28;20045;-60
2023/01/04 06:41:25;;;;;;;14.40;5.55;;;4.00;99.90;;;;;;5079438;28;20051;-60
2023/01/04 06:43:52;;;;;;;;;;;4.00;99.90;;;;;;5070998;28;20070;-61
2023/01/04 06:46:19;;;;;;;17.23;7.80;;;3.90;99.90;;;;;;5074275;28;19982;-61
2023/01/04 06:48:46;;;;;;;16.42;8.07;;;3.90;99.90;;;;;;5070701;28;20040;-61
2023/01/04 06:51:12;;;;;;;14.90;6.57;;;3.90;99.90;;;;;;5069568;28;20135;-61
2023/01/04 06:53:40;;;;;;;22.55;7.68;;;3.90;99.90;;;;;;5070673;28;20107;-61
2023/01/04 06:56:08;;;;;;;12.68;5.72;;;4.00;99.90;;;;;;5078419;28;20093;-61
2023/01/04 06:58:35;;;;;;;11.85;4.85;;;4.00;99.90;;;;;;5074691;28;20048;-61
2023/01/04 07:01:02;;;;;;;10.90;5.95;;;3.90;99.90;;;;;;5074686;28;20040;-60
2023/01/04 07:03:29;;;;;;;10.65;5.00;;;4.00;99.90;;;;;;5073497;28;20052;-61
2023/01/04 07:05:56;;;;;;;11.07;4.63;;;3.90;99.90;;;;;;5075042;28;20102;-61
2023/01/04 07:08:23;;;;;;;9.50;4.25;;;3.90;99.90;;;;;;5074273;28;20049;-61
2023/01/04 07:10:50;;;;;;;10.30;4.10;;;3.80;99.90;;;;;;5074745;28;20174;-61
2023/01/04 07:13:16;;;;;;;10.90;4.97;;;3.80;99.90;;;;;;5076383;28;20126;-61
2023/01/04 07:15:43;;;;;;;8.40;4.53;;;3.80;99.90;;;;;;5069689;28;20508;-61
2023/01/04 07:18:10;;;;;;;11.95;5.65;;;3.80;99.90;;;;;;5070361;28;20572;-61
2023/01/04 07:20:37;;;;;;;16.23;6.97;;;3.70;99.90;;;;;;5062192;28;20051;-61
2023/01/04 07:23:05;;;;;;;23.83;11.25;;;3.70;99.90;;;;;;5053531;28;20040;-60
2023/01/04 07:25:32;;;;;;;15.25;7.32;;;3.60;99.90;;;;;;5069393;28;20386;-60
2023/01/04 07:27:59;;;;;;;8.38;4.43;;;3.70;99.90;;;;;;5079852;28;20044;-61
2023/01/04 07:30:26;;;;;;;9.20;4.63;;;3.70;99.90;;;;;;5058550;28;20036;-61
2023/01/04 07:32:54;;;;;;;7.70;3.53;;;3.70;99.90;;;;;;5073568;28;20512;-61
2023/01/04 07:35:21;;;;;;;9.48;4.50;;;3.70;99.90;;;;;;5075064;28;20036;-61
2023/01/04 07:37:48;;;;;;;9.48;3.95;;;3.60;99.90;;;;;;5073999;28;20115;-61
2023/01/04 07:40:24;;;;;;;11.32;5.38;;;3.70;99.90;;;;;;5072691;28;20420;-60
2023/01/04 07:42:55;;;;;;;11.45;6.05;;;3.70;99.90;;;;;;5073737;28;20447;-61
2023/01/04 07:45:22;;;;;;;15.48;6.82;;;3.70;99.90;;;;;;5073280;28;20481;-60
2023/01/04 07:47:49;;;;;;;17.20;7.68;;;3.80;99.90;;;;;;5076952;28;20506;-61
2023/01/04 07:50:16;;;;;;;20.85;9.45;;;3.80;99.90;;;;;;5076168;28;20054;-60
2023/01/04 07:52:43;;;;;;;12.82;6.03;;;3.80;99.90;;;;;;5073486;28;20075;-60
2023/01/04 07:55:09;;;;;;;15.05;6.57;;;3.90;99.90;;;;;;5073795;28;20076;-61
2023/01/04 07:57:36;;;;;;;10.20;6.05;;;3.90;99.90;;;;;;5073771;28;20061;-61
2023/01/04 08:00:04;;;;;;;16.23;7.32;;;3.90;99.90;;;;;;5058533;28;20068;-60
2023/01/04 08:02:37;;;;;;;20.23;9.23;;;4.00;99.90;;;;;;5072719;28;20093;-61
2023/01/04 08:05:05;;;;;;;18.20;8.48;;;4.10;99.90;;;;;;5073306;28;20045;-61
2023/01/04 08:07:32;;;;;;;19.65;8.95;;;4.30;99.90;;;;;;5072071;28;20040;-61
2023/01/04 08:09:58;;;;;;;17.33;7.55;;;4.30;99.90;;;;;;5072349;28;20090;-60
2023/01/04 08:12:25;;;;;;;22.27;10.55;;;4.30;99.90;;;;;;5072410;28;20102;-61
2023/01/04 08:14:52;;;;;;;20.63;9.82;;;4.30;99.90;;;;;;5073244;28;20102;-61
2023/01/04 08:17:18;;;;;;;19.45;10.02;;;4.40;99.90;;;;;;5073029;28;20076;-61
2023/01/04 08:19:45;;;;;;;20.40;9.73;;;4.50;99.90;;;;;;5078535;28;20037;-60
2023/01/04 08:22:13;;;;;;;17.40;7.97;;;4.50;99.90;;;;;;5072765;28;20052;-61
2023/01/04 08:24:40;;;;;;;21.05;9.43;;;4.60;99.90;;;;;;5073512;28;20049;-61
2023/01/04 08:27:07;;;;;;;15.50;8.77;;;4.60;99.90;;;;;;5087048;28;20064;-61
2023/01/04 08:29:34;;;;;;;;;;;4.60;99.90;;;;;;5073613;28;20041;-61
2023/01/04 08:32:01;;;;;;;19.50;9.77;;;4.70;99.90;;;;;;5072151;28;19924;-61
2023/01/04 08:34:28;;;;;;;21.73;10.18;;;4.80;99.90;;;;;;5073267;28;20489;-61
2023/01/04 08:36:55;;;;;;;22.45;10.00;;;5.00;99.90;;;;;;5078867;28;20524;-61
2023/01/04 08:39:22;;;;;;;20.92;9.60;;;5.00;99.90;;;;;;5072589;28;20044;-61
2023/01/04 08:41:55;;;;;;;23.85;10.32;;;5.10;99.90;;;;;;5072858;28;20044;-61
2023/01/04 08:44:26;;;;;;;16.95;8.27;;;5.20;99.90;;;;;;5071632;28;20059;-60
2023/01/04 08:46:54;;;;;;;17.02;9.00;;;5.30;99.90;;;;;;5058912;28;20057;-61
2023/01/04 08:49:30;;;;;;;17.33;9.20;;;5.40;99.90;;;;;;5087172;22;20079;-64
2023/01/04 08:53:44;;;;;;;15.75;8.43;;;5.50;99.90;;;;;;5110966;28;20063;-64
2023/01/04 08:56:45;;;;;;;16.63;9.02;;;5.70;99.90;;;;;;5083272;28;20048;-64
2023/01/04 08:59:36;;;;;;;17.63;7.93;;;5.90;99.90;;;;;;5118474;27;20142;-64
2023/01/04 09:02:03;;;;;;;14.85;7.90;;;6.10;99.90;;;;;;5097634;27;20048;-65
2023/01/04 09:04:32;;;;;;;15.20;7.03;;;6.20;99.90;;;;;;5103846;28;20056;-64
2023/01/04 09:06:59;;;;;;;14.27;7.38;;;6.40;99.90;;;;;;5113010;28;20078;-64
2023/01/04 09:09:26;;;;;;;14.10;7.03;;;6.50;99.90;;;;;;5111531;28;20051;-64
2023/01/04 09:11:52;;;;;;;14.82;7.00;;;6.50;99.90;;;;;;5110911;28;20126;-65
2023/01/04 09:14:19;;;;;;;15.93;6.80;;;6.60;99.90;;;;;;5112124;28;20110;-65
2023/01/04 09:16:46;;;;;;;11.32;6.07;;;6.70;99.90;;;;;;5110984;28;20093;-65
2023/01/04 09:19:13;;;;;;;11.90;6.40;;;6.70;99.90;;;;;;5094852;28;20040;-65
2023/01/04 09:21:47;;;;;;;12.00;6.03;;;6.80;99.90;;;;;;5091761;28;20044;-64
2023/01/04 09:24:14;;;;;;;11.65;6.40;;;6.90;99.90;;;;;;5092194;28;20048;-65
2023/01/04 09:26:41;;;;;;;9.35;4.40;;;6.80;99.90;;;;;;5100343;28;20126;-65
2023/01/04 09:29:10;;;;;;;9.23;4.93;;;6.90;99.90;;;;;;5102048;28;20036;-65
2023/01/04 09:31:36;;;;;;;9.75;5.38;;;7.00;99.90;;;;;;5110167;28;20046;-65
2023/01/04 09:34:03;;;;;;;10.00;5.25;;;7.10;99.90;;;;;;5110785;28;20035;-64
2023/01/04 09:36:42;;;;;;;10.82;5.25;;;7.10;99.90;;;;;;5110444;28;20179;-65
2023/01/04 09:39:09;;;;;;;8.00;4.78;;;7.10;99.90;;;;;;5102859;28;20028;-65
2023/01/04 09:41:57;;;;;;;7.88;4.55;;;7.20;99.90;;;;;;5089819;28;20044;-65
2023/01/04 09:44:38;;;;;;;7.35;4.65;;;7.20;99.90;;;;;;5098857;28;20378;-65
2023/01/04 09:47:29;;;;;;;8.30;4.82;;;7.20;99.90;;;;;;5096517;28;20469;-65
2023/01/04 09:50:22;;;;;;;6.63;4.50;;;7.40;99.90;;;;;;5090319;28;20625;-65
2023/01/04 09:53:08;;;;;;;6.22;4.05;;;7.50;99.90;;;;;;5091130;28;20032;-64
2023/01/04 09:55:39;;;;;;;7.07;3.60;;;7.60;99.90;;;;;;5091174;28;20036;-65
2023/01/04 09:58:19;;;;;;;9.27;4.50;;;7.60;99.90;;;;;;5091476;28;20259;-64
2023/01/04 10:01:09;;;;;;;5.72;3.65;;;7.70;99.90;;;;;;5090575;28;20032;-64
2023/01/04 10:03:38;;;;;;;6.72;3.50;;;7.90;99.90;;;;;;5079303;28;20412;-64
2023/01/04 10:06:09;;;;;;;6.55;3.85;;;8.10;99.90;;;;;;5091146;28;20074;-64
2023/01/04 10:08:36;;;;;;;5.65;3.20;;;8.20;99.90;;;;;;5091256;28;20040;-64
2023/01/04 10:11:27;;;;;;;4.82;3.20;;;8.30;99.90;;;;;;5091594;28;20492;-64
2023/01/04 10:14:21;;;;;;;4.88;3.08;;;8.50;99.90;;;;;;5101216;28;20105;-64
2023/01/04 10:17:13;;;;;;;4.80;3.30;;;8.60;99.90;;;;;;5093518;28;20044;-73
2023/01/04 10:20:03;;;;;;;6.47;3.30;;;8.40;99.90;;;;;;5098131;28;20123;-67
2023/01/04 10:23:17;;;;;;;6.75;2.75;;;8.40;99.90;;;;;;5090671;28;20040;-64
2023/01/04 10:25:44;;;;;;;5.20;2.80;;;8.30;99.90;;;;;;5096174;28;20285;-64
2023/01/04 10:28:18;;;;;;;4.32;2.80;;;8.40;99.90;;;;;;5102404;28;20085;-64
2023/01/04 10:31:00;;;;;;;7.90;2.97;;;8.40;99.90;;;;;;5102008;28;20048;-64
2023/01/04 10:33:49;;;;;;;4.07;2.58;;;8.50;99.90;;;;;;5111395;28;20046;-63
2023/01/04 10:36:27;;;;;;;5.00;2.58;;;8.40;99.90;;;;;;5111788;28;20089;-63
2023/01/04 10:38:58;;;;;;;;;;;8.60;99.90;;;;;;5105637;28;20488;-64
2023/01/04 10:41:30;;;;;;;3.45;2.03;;;8.70;99.90;;;;;;5109309;28;19923;-63
2023/01/04 10:44:19;;;;;;;5.03;2.47;;;8.70;99.90;;;;;;5103994;28;20113;-64
2023/01/04 10:47:16;;;;;;;2.78;1.90;;;8.70;99.90;;;;;;5091181;28;20049;-65
2023/01/04 10:49:48;;;;;;;3.08;2.20;;;8.70;99.90;;;;;;5035993;28;20058;-63
2023/01/04 10:52:29;;;;;;;3.47;1.77;;;8.70;99.90;;;;;;5103321;28;20575;-64
2023/01/04 10:55:35;;;;;;;3.67;2.15;;;8.80;99.90;;;;;;5099885;28;20094;-64
2023/01/04 10:58:09;;;;;;;3.78;2.10;;;8.80;99.90;;;;;;5095846;28;20447;-64
2023/01/04 11:00:51;;;;;;;5.60;2.08;;;8.90;99.90;;;;;;5090087;28;20476;-63
2023/01/04 11:03:32;;;;;;;2.47;1.88;;;8.90;99.90;;;;;;5098891;28;20568;-64
2023/01/04 11:06:36;;;;;;;3.13;1.85;;;9.00;99.90;;;;;;5101012;28;20306;-64
2023/01/04 11:09:10;;;;;;;4.13;1.73;;;9.00;99.90;;;;;;5081424;28;20064;-64
2023/01/04 11:11:45;;;;;;;3.50;1.80;;;9.10;99.90;;;;;;5092081;28;20044;-64
2023/01/04 11:14:13;;;;;;;2.70;1.70;;;9.10;99.90;;;;;;5096536;28;20313;-64
2023/01/04 11:16:43;;;;;;;3.10;1.83;;;9.10;99.90;;;;;;5090501;28;20153;-64
2023/01/04 11:19:11;;;;;;;3.33;2.15;;;9.00;99.90;;;;;;5090571;28;20493;-64
2023/01/04 11:21:47;;;;;;;;;;;9.10;99.90;;;;;;5098590;28;20071;-64
2023/01/04 11:24:15;;;;;;;2.92;1.85;;;9.00;99.90;;;;;;5094006;28;19920;-64
2023/01/04 11:27:04;;;;;;;4.43;2.20;;;9.00;99.90;;;;;;5092941;28;20487;-64
2023/01/04 11:29:56;;;;;;;4.22;1.90;;;9.00;99.90;;;;;;5091400;28;20044;-64
2023/01/04 11:32:43;;;;;;;2.85;1.80;;;9.00;99.90;;;;;;5089085;28;20036;-64
2023/01/04 11:35:09;;;;;;;2.50;1.67;;;9.20;99.90;;;;;;5090759;28;20040;-64
2023/01/04 11:37:39;;;;;;;2.53;1.90;;;9.30;99.90;;;;;;5104331;28;20036;-64
2023/01/04 11:40:17;;;;;;;3.42;2.03;;;9.30;99.90;;;;;;5102832;28;20055;-64
2023/01/04 11:43:08;;;;;;;3.40;2.17;;;9.50;99.90;;;;;;5094201;28;20055;-64
2023/01/04 11:45:35;;;;;;;4.65;2.13;;;9.50;99.90;;;;;;5098123;28;20047;-63
2023/01/04 11:48:05;;;;;;;4.65;2.08;;;9.60;99.90;;;;;;5107519;28;20500;-63
2023/01/04 11:50:44;;;;;;;2.63;1.70;;;9.70;99.90;;;;;;5096536;28;20036;-64
2023/01/04 11:53:22;;;;;;;2.72;1.77;;;9.70;99.90;;;;;;5101785;28;20040;-64
2023/01/04 11:55:49;;;;;;;3.17;1.95;;;9.60;99.90;;;;;;5104474;28;20040;-64
2023/01/04 11:58:17;;;;;;;;;;;9.50;99.90;;;;;;5103431;28;20078;-64
2023/01/04 12:00:55;;;;;;;4.43;2.35;;;9.50;99.90;;;;;;5103119;28;19940;-64
2023/01/04 12:03:29;;;;;;;3.75;1.70;;;9.40;99.90;;;;;;5100023;28;20519;-64
2023/01/04 12:05:57;;;;;;;4.47;2.40;;;9.40;99.90;;;;;;5097708;28;20115;-64
2023/01/04 12:08:30;;;;;;;3.22;2.00;;;9.30;99.90;;;;;;5111471;28;20089;-64
2023/01/04 12:10:58;;;;;;;3.67;2.20;;;9.20;99.90;;;;;;5114554;28;20089;-64
2023/01/04 12:13:25;;;;;;;4.65;2.20;;;9.00;99.90;;;;;;5102853;28;20043;-64
2023/01/04 12:16:13;;;;;;;4.53;2.25;;;8.90;99.90;;;;;;5107215;28;20043;-64
2023/01/04 12:18:43;;;;;;;1.88;1.25;;;8.90;99.90;;;;;;5098063;28;20031;-64
2023/01/04 12:21:23;;;;;;;3.47;2.10;;;8.90;99.90;;;;;;5101709;28;20059;-64
2023/01/04 12:23:52;;;;;;;4.00;2.20;;;8.90;99.90;;;;;;5096315;28;20043;-64
2023/01/04 12:26:19;;;;;;;2.85;1.80;;;8.90;99.90;;;;;;5095777;28;20408;-64
2023/01/04 12:29:10;;;;;;;7.43;2.78;;;9.00;99.90;;;;;;5102863;28;20114;-64
2023/01/04 12:31:37;;;;;;;3.85;2.28;;;8.90;99.90;;;;;;5088668;28;20101;-64
2023/01/04 12:34:22;;;;;;;3.83;2.03;;;9.00;99.90;;;;;;5111313;28;20112;-64
2023/01/04 12:36:49;;;;;;;7.47;2.97;;;8.90;99.90;;;;;;5104782;28;20040;-63
2023/01/04 12:39:16;;;;;;;4.90;2.40;;;9.00;99.90;;;;;;5093766;28;20059;-64
2023/01/04 12:41:59;;;;;;;5.88;2.63;;;9.00;99.90;;;;;;5097514;28;20036;-64
2023/01/04 12:44:35;;;;;;;4.07;2.22;;;8.90;99.90;;;;;;5106313;28;20488;-64
2023/01/04 12:50:19;;;;;;;5.32;2.65;;;9.00;99.90;;;;;;5121320;27;20040;-64
2023/01/04 12:52:54;;;;;;;5.75;2.60;;;8.90;99.90;;;;;;5106821;28;20560;-64
2023/01/04 12:55:44;;;;;;;4.20;2.25;;;8.90;99.90;;;;;;5112721;28;20102;-64
2023/01/04 12:58:26;;;;;;;3.25;2.00;;;8.90;99.90;;;;;;5106695;28;20100;-64
2023/01/04 13:01:33;;;;;;;4.47;2.42;;;8.90;99.90;;;;;;5102888;28;20044;-63
2023/01/04 13:04:39;;;;;;;4.30;2.10;;;8.90;99.90;;;;;;5107366;28;20407;-64
2023/01/04 13:07:36;;;;;;;3.55;2.30;;;8.80;99.90;;;;;;5102783;28;20139;-64
2023/01/04 13:10:17;;;;;;;3.60;2.30;;;8.80;99.90;;;;;;5102879;28;20046;-64
2023/01/04 13:13:13;;;;;;;4.00;2.15;;;8.80;99.90;;;;;;5109189;28;20305;-64
2023/01/04 13:16:02;;;;;;;4.15;2.00;;;8.80;99.90;;;;;;5106753;28;20430;-63
2023/01/04 13:18:46;;;;;;;7.20;2.42;;;8.70;99.90;;;;;;5109229;28;20050;-63
2023/01/04 13:21:33;;;;;;;4.50;1.98;;;8.70;99.90;;;;;;5110950;28;20114;-64
2023/01/04 13:24:04;;;;;;;5.97;2.47;;;8.60;99.90;;;;;;5110657;28;20070;-64
2023/01/04 13:26:30;;;;;;;3.70;2.00;;;8.60;99.90;;;;;;5111794;28;20575;-64
2023/01/04 13:29:32;;;;;;;3.72;2.20;;;8.70;99.90;;;;;;5111540;28;20039;-63
2023/01/04 13:32:02;;;;;;;3.47;2.05;;;8.70;99.90;;;;;;5077486;28;20056;-64
2023/01/04 13:34:35;;;;;;;5.93;2.72;;;8.60;99.90;;;;;;5111603;28;20040;-64
2023/01/04 13:37:07;;;;;;;6.25;2.72;;;8.60;99.90;;;;;;5112079;28;20092;-64
2023/01/04 13:39:35;;;;;;;2.67;1.67;;;8.60;99.90;;;;;;5108528;28;20067;-64
2023/01/04 13:42:04;;;;;;;4.20;2.00;;;8.50;99.90;;;;;;5105971;28;20035;-64
2023/01/04 13:45:06;;;;;;;3.03;1.70;;;8.50;99.90;;;;;;5109558;28;20570;-64
2023/01/04 13:47:51;;;;;;;6.25;2.40;;;8.50;99.90;;;;;;5107578;28;20040;-64
2023/01/04 13:50:35;;;;;;;5.45;2.13;;;8.50;99.90;;;;;;5105910;28;20044;-64
2023/01/04 13:53:03;;;;;;;3.20;2.20;;;8.50;99.90;;;;;;5107753;28;20136;-64
2023/01/04 13:55:36;;;;;;;4.10;2.00;;;8.50;99.90;;;;;;5108626;28;20097;-64
2023/01/04 13:58:17;;;;;;;3.47;2.00;;;8.50;99.90;;;;;;5111117;28;20122;-64
2023/01/04 14:00:47;;;;;;;64.65;26.40;;;8.50;99.90;;;;;;5111898;28;20132;-65
2023/01/04 14:03:28;;;;;;;12.40;5.50;;;8.60;99.90;;;;;;5098803;28;20100;-64
2023/01/04 14:06:23;;;;;;;4.95;2.35;;;8.60;99.90;;;;;;5091866;28;20089;-64
2023/01/04 14:08:59;;;;;;;6.25;2.00;;;8.60;99.90;;;;;;5082182;28;20062;-64
2023/01/04 14:12:00;;;;;;;3.65;2.00;;;8.60;99.90;;;;;;5091098;28;20488;-64
2023/01/04 14:14:38;;;;;;;3.70;2.15;;;8.60;99.90;;;;;;5090432;28;20692;-64